Time;durP1;ratioP1;P1;durP2;ratioP2;P2;SDS_P1;SDS_P2;PMS_P1;PMS_P2;Temp;Humidity;BMP_temperature;BMP_pressure;BME280_temperature;BME280_humidity;BME280_pressure;Samples;Min_cycle;Max_cycle;Signal;HPM_P1;HPM_P2
2021/03/20 00:00:41;;;;;;;2.30;1.53;;;1.30;1.00;;;;;;5070131;28;20645;-57
2021/03/20 00:03:07;;;;;;;3.20;1.53;;;1.30;1.00;;;;;;5071346;28;20441;-58
2021/03/20 00:05:34;;;;;;;3.20;1.70;;;1.30;1.00;;;;;;5072056;28;20954;-59
2021/03/20 00:08:00;;;;;;;2.63;1.33;;;1.30;1.00;;;;;;5071356;28;20446;-58
2021/03/20 00:10:26;;;;;;;5.23;1.90;;;1.30;1.00;;;;;;5069417;28;20454;-57
2021/03/20 00:12:53;;;;;;;3.60;2.03;;;1.30;1.00;;;;;;5070991;28;20804;-58
2021/03/20 00:15:25;;;;;;;3.90;1.60;;;1.20;1.00;;;;;;5072654;28;20580;-59
2021/03/20 00:17:50;;;;;;;3.30;1.50;;;1.20;1.00;;;;;;5072207;28;20533;-58
2021/03/20 00:20:21;;;;;;;2.50;1.43;;;1.00;1.00;;;;;;5070731;28;20509;-59
2021/03/20 00:22:47;;;;;;;3.03;1.60;;;1.00;1.00;;;;;;5070791;28;20475;-59
2021/03/20 00:25:12;;;;;;;6.10;2.03;;;0.90;1.00;;;;;;5072134;28;20811;-59
2021/03/20 00:27:38;;;;;;;2.40;1.60;;;0.80;1.00;;;;;;5069742;28;20249;-58
2021/03/20 00:30:05;;;;;;;5.20;2.13;;;0.80;1.00;;;;;;5071307;28;20204;-59
2021/03/20 00:32:31;;;;;;;4.17;1.70;;;0.70;1.00;;;;;;5069332;28;20195;-60
2021/03/20 00:34:56;;;;;;;6.37;1.70;;;0.70;1.00;;;;;;5072352;28;20784;-58
2021/03/20 00:37:22;;;;;;;3.23;1.57;;;0.80;1.00;;;;;;5070948;28;20661;-58
2021/03/20 00:39:47;;;;;;;5.20;1.93;;;0.80;1.00;;;;;;5068473;28;20233;-58
2021/03/20 00:42:13;;;;;;;2.63;1.63;;;0.70;1.00;;;;;;5072061;28;20588;-59
2021/03/20 00:44:39;;;;;;;2.40;1.50;;;0.70;1.00;;;;;;5072075;28;20259;-60
2021/03/20 00:47:05;;;;;;;4.73;1.97;;;0.70;1.00;;;;;;5070760;28;20191;-57
2021/03/20 00:49:31;;;;;;;2.77;1.70;;;0.70;1.00;;;;;;5071003;28;20269;-58
2021/03/20 00:51:57;;;;;;;4.00;1.60;;;0.60;1.00;;;;;;5068571;28;20829;-58
2021/03/20 00:54:23;;;;;;;3.27;1.63;;;0.50;1.00;;;;;;5071337;28;20458;-58
2021/03/20 00:56:49;;;;;;;2.10;1.40;;;0.50;1.00;;;;;;5068645;28;20441;-58
2021/03/20 00:59:15;;;;;;;1.63;1.53;;;0.50;1.00;;;;;;5072261;28;20434;-58
2021/03/20 01:01:40;;;;;;;2.60;1.90;;;0.50;1.00;;;;;;5070362;28;20799;-58
2021/03/20 01:04:06;;;;;;;4.17;1.97;;;0.50;1.00;;;;;;5068905;28;20194;-59
2021/03/20 01:06:32;;;;;;;5.30;2.10;;;0.40;1.00;;;;;;5064829;28;20213;-58
2021/03/20 01:08:58;;;;;;;3.40;1.67;;;0.50;1.00;;;;;;5069547;28;20223;-59
2021/03/20 01:11:26;;;;;;;1.70;1.50;;;0.40;1.00;;;;;;5063319;28;20459;-58
2021/03/20 01:13:53;;;;;;;1.90;1.80;;;0.40;1.00;;;;;;5065617;28;20520;-58
2021/03/20 01:16:18;;;;;;;3.10;2.03;;;0.50;1.00;;;;;;5067440;28;20472;-59
2021/03/20 01:18:44;;;;;;;1.57;1.27;;;0.40;1.00;;;;;;5067426;28;20951;-57
2021/03/20 01:21:10;;;;;;;4.83;1.67;;;0.40;1.00;;;;;;5062764;28;20187;-59
2021/03/20 01:23:37;;;;;;;1.70;1.60;;;0.40;1.00;;;;;;5069894;28;20466;-58
2021/03/20 01:26:02;;;;;;;3.23;1.90;;;0.30;1.00;;;;;;5051472;28;20457;-59
2021/03/20 01:28:32;;;;;;;6.43;2.50;;;0.30;1.00;;;;;;5068353;28;20453;-58
2021/03/20 01:30:59;;;;;;;4.73;1.73;;;0.30;1.00;;;;;;5071326;28;20488;-59
2021/03/20 01:33:25;;;;;;;3.10;2.20;;;0.30;1.00;;;;;;5070704;28;20442;-59
2021/03/20 01:35:51;;;;;;;2.50;1.83;;;0.30;1.00;;;;;;5070682;28;20514;-58
2021/03/20 01:38:17;;;;;;;2.40;1.60;;;0.30;1.00;;;;;;5070564;28;20445;-59
2021/03/20 01:40:49;;;;;;;1.80;1.67;;;0.10;1.00;;;;;;5068608;28;21904;-58
2021/03/20 01:43:16;;;;;;;3.30;1.97;;;0.00;1.00;;;;;;5069606;28;20175;-58
2021/03/20 01:45:43;;;;;;;1.70;1.60;;;-0.10;1.00;;;;;;5069667;28;20984;-57
2021/03/20 01:48:22;;;;;;;2.80;1.83;;;-0.10;1.00;;;;;;5070095;28;20550;-58
2021/03/20 01:50:54;;;;;;;2.90;1.80;;;-0.10;1.00;;;;;;5068524;28;20452;-58
2021/03/20 01:53:28;;;;;;;5.93;2.07;;;0.00;1.00;;;;;;5068586;28;20445;-59
2021/03/20 01:55:55;;;;;;;4.27;1.87;;;0.10;1.00;;;;;;5068293;28;20526;-57
2021/03/20 01:58:21;;;;;;;4.90;2.20;;;0.20;1.00;;;;;;5068935;28;20485;-59
2021/03/20 02:00:48;;;;;;;3.80;2.30;;;0.00;1.00;;;;;;5070767;28;20597;-57
2021/03/20 02:03:20;;;;;;;3.73;2.33;;;0.00;1.00;;;;;;5070411;28;20441;-58
2021/03/20 02:05:46;;;;;;;2.43;1.67;;;0.00;1.00;;;;;;5070522;28;20433;-58
2021/03/20 02:08:15;;;;;;;2.00;1.43;;;-0.20;1.00;;;;;;5070535;28;20449;-58
2021/03/20 02:10:44;;;;;;;2.20;1.77;;;-0.10;1.00;;;;;;5068313;28;20980;-58
2021/03/20 02:13:33;;;;;;;3.33;1.60;;;-0.10;1.00;;;;;;5066050;28;20450;-58
2021/03/20 02:16:17;;;;;;;6.07;1.93;;;-0.10;1.00;;;;;;5069897;28;20516;-58
2021/03/20 02:18:46;;;;;;;4.70;2.77;;;-0.10;1.00;;;;;;5070922;28;20516;-59
2021/03/20 02:21:22;;;;;;;2.17;1.83;;;-2.10;1.00;;;;;;5066485;28;20482;-58
2021/03/20 02:24:26;;;;;;;2.80;2.20;;;-0.10;1.00;;;;;;5070079;28;21048;-58
2021/03/20 02:27:17;;;;;;;2.93;1.43;;;-0.10;1.00;;;;;;5068665;28;20438;-57
2021/03/20 02:30:01;;;;;;;5.50;1.93;;;-0.20;1.00;;;;;;5065429;28;21062;-58
2021/03/20 02:32:48;;;;;;;5.30;2.07;;;-0.30;1.00;;;;;;5067870;28;20792;-60
2021/03/20 02:35:33;;;;;;;5.13;1.90;;;-0.30;1.00;;;;;;5064974;28;20492;-59
2021/03/20 02:38:11;;;;;;;2.47;2.27;;;-0.30;1.00;;;;;;5067222;28;20790;-58
2021/03/20 02:40:59;;;;;;;5.40;2.23;;;-0.40;1.00;;;;;;5070052;28;20938;-58
2021/03/20 02:43:38;;;;;;;4.00;2.03;;;-0.30;1.00;;;;;;5075895;28;20445;-59
2021/03/20 02:46:13;;;;;;;2.73;1.93;;;-0.40;1.00;;;;;;5084410;28;20445;-58
2021/03/20 02:48:57;;;;;;;2.80;2.07;;;-0.40;1.00;;;;;;5069633;28;20833;-58
2021/03/20 02:51:30;;;;;;;4.30;1.43;;;-0.30;1.00;;;;;;5061765;28;20442;-58
2021/03/20 02:54:14;;;;;;;5.63;2.73;;;-0.40;1.00;;;;;;5067510;28;20468;-58
2021/03/20 02:57:11;;;;;;;1.77;1.63;;;-0.40;1.00;;;;;;5066632;28;20445;-58
2021/03/20 02:59:47;;;;;;;3.93;1.97;;;-0.50;1.00;;;;;;5048029;28;20449;-59
2021/03/20 03:02:16;;;;;;;3.57;2.30;;;-0.40;1.00;;;;;;5070028;28;20452;-57
2021/03/20 03:05:21;;;;;;;2.20;2.00;;;-0.40;1.00;;;;;;5066152;28;20456;-58
2021/03/20 03:08:08;;;;;;;2.80;1.70;;;-0.40;1.00;;;;;;5031727;28;20437;-57
2021/03/20 03:10:42;;;;;;;2.70;1.43;;;-0.40;1.00;;;;;;5057128;28;20453;-57
2021/03/20 03:13:13;;;;;;;2.50;2.00;;;-0.40;1.00;;;;;;5066970;28;20456;-60
2021/03/20 03:15:43;;;;;;;3.27;2.40;;;-0.40;1.00;;;;;;5069667;28;20472;-57
2021/03/20 03:18:15;;;;;;;3.43;2.00;;;-0.50;1.00;;;;;;5069932;28;20433;-57
2021/03/20 03:20:50;;;;;;;3.27;2.20;;;-0.50;1.00;;;;;;5071914;28;20464;-58
2021/03/20 03:23:20;;;;;;;3.43;1.70;;;-0.60;1.00;;;;;;5082252;28;20437;-59
2021/03/20 03:25:49;;;;;;;3.53;2.13;;;-0.50;1.00;;;;;;5068816;28;20464;-58
2021/03/20 03:28:20;;;;;;;3.97;2.50;;;-0.40;1.00;;;;;;5073456;28;20948;-58
2021/03/20 03:30:46;;;;;;;7.73;2.33;;;-0.50;1.00;;;;;;5072765;28;20548;-58
2021/03/20 03:33:21;;;;;;;2.60;2.07;;;-0.30;1.00;;;;;;5071579;28;20536;-58
2021/03/20 03:35:54;;;;;;;2.37;2.03;;;-0.40;1.00;;;;;;5073077;28;20224;-59
2021/03/20 03:38:30;;;;;;;3.80;2.20;;;-0.60;1.00;;;;;;5072290;28;21008;-58
2021/03/20 03:41:10;;;;;;;2.40;2.00;;;-0.50;1.00;;;;;;5073159;28;20452;-57
2021/03/20 03:43:36;;;;;;;4.90;1.80;;;-0.50;1.00;;;;;;5071194;28;20513;-58
2021/03/20 03:46:02;;;;;;;5.13;2.03;;;-0.40;1.00;;;;;;5072439;28;20798;-58
2021/03/20 03:48:29;;;;;;;3.87;1.90;;;-0.50;1.00;;;;;;5067050;28;20457;-58
2021/03/20 03:51:05;;;;;;;2.50;2.30;;;-0.50;1.00;;;;;;5070294;28;20804;-57
2021/03/20 03:53:32;;;;;;;4.87;2.33;;;-0.60;1.00;;;;;;5069824;28;20943;-57
2021/03/20 03:56:02;;;;;;;2.77;2.20;;;-0.50;1.00;;;;;;5069289;28;20997;-57
2021/03/20 03:58:53;;;;;;;2.33;1.63;;;-0.70;1.00;;;;;;5072673;28;20803;-57
2021/03/20 04:01:47;;;;;;;3.03;1.70;;;-0.70;1.00;;;;;;5069646;28;20934;-57
2021/03/20 04:04:31;;;;;;;2.67;2.00;;;-0.70;1.00;;;;;;5072372;28;20437;-57
2021/03/20 04:07:34;;;;;;;8.83;2.70;;;-0.60;1.00;;;;;;5065638;28;20528;-58
2021/03/20 04:10:32;;;;;;;11.37;2.63;;;-0.70;1.00;;;;;;5069888;28;20783;-57
2021/03/20 04:13:07;;;;;;;4.60;2.80;;;-0.80;1.00;;;;;;5064058;28;20475;-57
2021/03/20 04:15:48;;;;;;;3.20;1.53;;;-0.70;1.00;;;;;;5072438;28;20464;-59
2021/03/20 04:18:26;;;;;;;3.17;2.10;;;-0.70;1.00;;;;;;5071963;28;20441;-58
2021/03/20 04:21:06;;;;;;;3.03;2.20;;;-0.90;1.00;;;;;;5071198;28;20873;-59
2021/03/20 04:23:36;;;;;;;3.37;1.90;;;-0.90;1.00;;;;;;5069990;28;20510;-58
2021/03/20 04:26:11;;;;;;;3.10;2.20;;;-1.00;1.00;;;;;;5070821;28;20457;-58
2021/03/20 04:28:55;;;;;;;2.33;1.83;;;-1.00;1.00;;;;;;5070807;28;20445;-58
2021/03/20 04:31:35;;;;;;;2.03;1.77;;;-0.90;1.00;;;;;;5069459;28;20545;-59
2021/03/20 04:34:22;;;;;;;2.53;1.93;;;-0.90;1.00;;;;;;5071819;28;20848;-58
2021/03/20 04:36:53;;;;;;;3.97;2.07;;;-0.90;1.00;;;;;;5071712;28;20430;-58
2021/03/20 04:39:22;;;;;;;10.00;2.87;;;-0.90;1.00;;;;;;5068782;28;20529;-58
2021/03/20 04:41:50;;;;;;;4.20;2.67;;;-1.00;1.00;;;;;;5071047;28;20446;-57
2021/03/20 04:44:17;;;;;;;5.87;2.70;;;-1.20;1.00;;;;;;5072220;28;20838;-57
2021/03/20 04:46:43;;;;;;;2.63;1.40;;;-1.20;1.00;;;;;;5067695;28;20864;-58
2021/03/20 04:49:27;;;;;;;4.23;2.07;;;-0.10;1.00;;;;;;5069578;28;20532;-57
2021/03/20 04:52:06;;;;;;;7.43;2.37;;;-1.20;1.00;;;;;;5071023;28;20830;-57
2021/03/20 04:54:32;;;;;;;5.60;2.73;;;-0.90;1.00;;;;;;5069260;28;20599;-58
2021/03/20 04:57:27;;;;;;;3.87;2.57;;;-0.80;1.00;;;;;;5070255;28;20532;-58
2021/03/20 05:00:15;;;;;;;5.87;2.10;;;-0.90;1.00;;;;;;5064921;28;20575;-57
2021/03/20 05:03:11;;;;;;;3.77;2.47;;;-0.80;1.00;;;;;;5062954;28;20449;-57
2021/03/20 05:05:45;;;;;;;8.53;3.50;;;-0.80;1.00;;;;;;5068666;28;20437;-58
2021/03/20 05:08:14;;;;;;;4.50;2.47;;;-0.80;1.00;;;;;;5067338;28;20457;-59
2021/03/20 05:10:55;;;;;;;4.83;2.27;;;-0.80;1.00;;;;;;5071564;28;20996;-57
2021/03/20 05:13:48;;;;;;;1.80;1.40;;;-0.90;1.00;;;;;;5069023;28;20841;-58
2021/03/20 05:16:16;;;;;;;4.43;2.10;;;-0.90;1.00;;;;;;5070314;28;20438;-58
2021/03/20 05:18:47;;;;;;;5.43;1.93;;;-1.00;1.00;;;;;;5070943;28;20445;-59
2021/03/20 05:21:16;;;;;;;5.00;2.43;;;-1.00;1.00;;;;;;5068856;28;20459;-59
2021/03/20 05:23:42;;;;;;;2.23;2.03;;;;;;;;;;5068728;28;20461;-58
2021/03/20 05:26:08;;;;;;;2.30;2.10;;;-1.10;1.00;;;;;;5068007;28;20441;-60
2021/03/20 05:28:34;;;;;;;4.37;2.30;;;-1.10;1.00;;;;;;5071682;28;20710;-58
2021/03/20 05:31:01;;;;;;;4.50;2.43;;;-1.10;1.00;;;;;;5070810;28;20553;-59
2021/03/20 05:33:27;;;;;;;4.40;2.17;;;-1.10;1.00;;;;;;5071223;28;20191;-58
2021/03/20 05:35:53;;;;;;;5.20;2.27;;;-1.10;1.00;;;;;;5069293;28;20469;-58
2021/03/20 05:38:19;;;;;;;5.00;2.10;;;-1.00;1.00;;;;;;5056455;28;20190;-58
2021/03/20 05:40:44;;;;;;;4.77;2.33;;;-1.00;1.00;;;;;;5065135;28;20534;-60
2021/03/20 05:43:23;;;;;;;4.37;3.03;;;-1.10;1.00;;;;;;5084049;28;20183;-58
2021/03/20 05:46:03;;;;;;;5.33;2.23;;;-1.10;1.00;;;;;;5091251;28;20662;-59
2021/03/20 05:48:34;;;;;;;3.00;2.50;;;-1.10;1.00;;;;;;5081973;28;20446;-58
2021/03/20 05:51:19;;;;;;;3.63;2.60;;;-1.10;1.00;;;;;;5069483;28;20464;-59
2021/03/20 05:54:06;;;;;;;3.50;2.27;;;-1.10;1.00;;;;;;5067853;28;20441;-59
2021/03/20 05:56:53;;;;;;;2.80;2.10;;;-0.90;1.00;;;;;;5069341;28;20520;-59
2021/03/20 05:59:56;;;;;;;4.10;2.10;;;-0.80;1.00;;;;;;5070405;28;20433;-58
2021/03/20 06:02:41;;;;;;;4.33;2.73;;;-0.60;1.00;;;;;;5070561;28;20852;-60
2021/03/20 06:05:33;;;;;;;4.30;2.07;;;-0.60;1.00;;;;;;5067985;28;20453;-59
2021/03/20 06:08:36;;;;;;;4.13;2.27;;;-0.50;1.00;;;;;;5068456;28;20508;-58
2021/03/20 06:11:22;;;;;;;4.80;2.70;;;-0.50;1.00;;;;;;5068911;28;20448;-59
2021/03/20 06:14:20;;;;;;;2.83;1.80;;;3.20;1.00;;;;;;5067157;28;20532;-58
2021/03/20 06:17:04;;;;;;;3.03;1.80;;;-0.40;1.00;;;;;;5061845;28;20529;-57
2021/03/20 06:19:44;;;;;;;4.97;2.30;;;-0.40;1.00;;;;;;5069640;28;20453;-58
2021/03/20 06:22:22;;;;;;;3.63;2.90;;;-0.40;1.00;;;;;;5072734;28;20587;-57
2021/03/20 06:25:14;;;;;;;3.87;2.30;;;-0.30;1.00;;;;;;5067399;28;20481;-59
2021/03/20 06:27:45;;;;;;;5.33;2.63;;;-0.30;1.00;;;;;;5066280;28;20466;-58
2021/03/20 06:30:29;;;;;;;2.60;2.37;;;-0.10;1.00;;;;;;5069387;28;20464;-58
2021/03/20 06:33:06;;;;;;;8.47;4.30;;;0.30;1.00;;;;;;5070409;28;20449;-59
2021/03/20 06:35:41;;;;;;;3.83;2.93;;;0.30;1.00;;;;;;5070114;28;20564;-59
2021/03/20 06:38:18;;;;;;;6.40;2.57;;;0.40;1.00;;;;;;5070208;28;20433;-59
2021/03/20 06:40:56;;;;;;;5.67;3.10;;;0.40;1.00;;;;;;5069882;28;20441;-58
2021/03/20 06:43:29;;;;;;;4.70;2.50;;;0.30;1.00;;;;;;5066091;28;20445;-60
2021/03/20 06:45:55;;;;;;;4.43;3.63;;;0.40;1.00;;;;;;5065807;28;20813;-58
2021/03/20 06:48:27;;;;;;;7.43;2.97;;;0.40;1.00;;;;;;5068458;28;20537;-60
2021/03/20 06:50:56;;;;;;;4.77;2.67;;;0.70;1.00;;;;;;5069427;28;20449;-58
2021/03/20 06:53:43;;;;;;;5.30;2.90;;;1.10;1.00;;;;;;5068465;28;20511;-58
2021/03/20 06:56:13;;;;;;;7.27;2.83;;;1.20;1.00;;;;;;5069225;28;20556;-57
2021/03/20 06:58:41;;;;;;;5.30;2.40;;;1.40;1.00;;;;;;5076392;28;20909;-57
2021/03/20 07:01:20;;;;;;;3.87;2.77;;;1.50;1.00;;;;;;5080564;28;20436;-59
2021/03/20 07:03:54;;;;;;;3.13;2.53;;;1.80;1.00;;;;;;5069728;28;20931;-59
2021/03/20 07:06:38;;;;;;;6.77;3.23;;;1.80;1.00;;;;;;5071913;28;20973;-59
2021/03/20 07:09:06;;;;;;;8.57;2.93;;;1.90;1.00;;;;;;5072916;28;20427;-58
2021/03/20 07:11:40;;;;;;;4.63;2.80;;;2.10;1.00;;;;;;5071926;28;20430;-58
2021/03/20 07:14:12;;;;;;;5.20;2.97;;;2.00;1.00;;;;;;5071197;28;20536;-59
2021/03/20 07:17:24;;;;;;;5.77;3.40;;;1.50;1.00;;;;;;5069301;28;20507;-59
2021/03/20 07:20:09;;;;;;;3.53;2.90;;;1.60;1.00;;;;;;5064635;28;20506;-59
2021/03/20 07:22:39;;;;;;;3.33;3.00;;;1.50;1.00;;;;;;5073314;28;20459;-58
2021/03/20 07:25:28;;;;;;;6.63;3.30;;;1.70;1.00;;;;;;5070800;28;21070;-57
2021/03/20 07:28:04;;;;;;;5.27;2.80;;;2.00;1.00;;;;;;5081638;28;20448;-59
2021/03/20 07:30:35;;;;;;;4.37;3.13;;;2.30;1.00;;;;;;5071079;28;20443;-59
2021/03/20 07:33:01;;;;;;;2.77;1.83;;;2.40;1.00;;;;;;5068097;28;20441;-58
2021/03/20 07:35:34;;;;;;;6.67;2.60;;;2.30;1.00;;;;;;5067284;28;20484;-58
2021/03/20 07:38:18;;;;;;;3.77;2.20;;;2.30;1.00;;;;;;5066643;28;20174;-58
2021/03/20 07:40:44;;;;;;;5.03;2.70;;;2.60;1.00;;;;;;5067105;28;20845;-59
2021/03/20 07:43:15;;;;;;;5.73;3.10;;;2.70;1.00;;;;;;5071128;28;20446;-59
2021/03/20 07:45:42;;;;;;;4.43;2.77;;;2.80;1.00;;;;;;5070504;28;20284;-59
2021/03/20 07:48:20;;;;;;;6.23;3.03;;;2.90;1.00;;;;;;5073364;28;20439;-60
2021/03/20 07:51:03;;;;;;;5.10;3.03;;;3.10;1.00;;;;;;5073267;28;20439;-57
2021/03/20 07:53:29;;;;;;;5.13;2.50;;;2.90;1.00;;;;;;5054564;28;20962;-59
2021/03/20 07:56:00;;;;;;;7.80;3.17;;;3.20;1.00;;;;;;5074148;28;20463;-59
2021/03/20 07:58:34;;;;;;;4.73;3.43;;;3.60;1.00;;;;;;5078370;28;20489;-59
2021/03/20 08:01:04;;;;;;;7.27;3.10;;;3.60;1.00;;;;;;5079095;28;20790;-60
2021/03/20 08:03:33;;;;;;;5.27;2.70;;;4.20;1.00;;;;;;5073336;28;20429;-60
2021/03/20 08:06:17;;;;;;;4.73;3.00;;;4.20;1.00;;;;;;5075221;28;20533;-58
2021/03/20 08:08:42;;;;;;;10.37;2.70;;;5.90;1.00;;;;;;5072325;28;20772;-59
2021/03/20 08:11:50;;;;;;;4.73;2.93;;;4.00;1.00;;;;;;5071552;28;20468;-59
2021/03/20 08:14:38;;;;;;;2.87;2.27;;;3.80;1.00;;;;;;5010480;28;20247;-59
2021/03/20 08:17:05;;;;;;;7.13;3.97;;;4.00;1.00;;;;;;5007923;28;20554;-59
2021/03/20 08:19:33;;;;;;;3.77;3.20;;;4.50;1.00;;;;;;5047754;28;20454;-59
2021/03/20 08:22:09;;;;;;;2.77;2.37;;;4.50;1.00;;;;;;5071797;28;20863;-59
2021/03/20 08:25:02;;;;;;;2.47;2.27;;;4.90;1.00;;;;;;5071598;28;20974;-59
2021/03/20 08:27:47;;;;;;;4.40;2.40;;;4.70;1.00;;;;;;5071250;28;20479;-59
2021/03/20 08:30:25;;;;;;;3.50;2.60;;;4.30;1.00;;;;;;5071064;28;20844;-60
2021/03/20 08:33:12;;;;;;;4.37;3.17;;;3.80;1.00;;;;;;5072596;28;20427;-60
2021/03/20 08:36:00;;;;;;;6.50;3.50;;;3.70;1.00;;;;;;5071337;28;20944;-59
2021/03/20 08:38:46;;;;;;;4.80;2.80;;;3.30;1.00;;;;;;5070638;28;20430;-60
2021/03/20 08:41:39;;;;;;;7.63;6.37;;;3.50;1.00;;;;;;5070702;28;20431;-60
2021/03/20 08:44:23;;;;;;;4.40;3.17;;;3.30;1.00;;;;;;5072298;28;20566;-58
2021/03/20 08:47:11;;;;;;;5.07;2.83;;;3.70;1.00;;;;;;5067282;28;20510;-60
2021/03/20 08:49:49;;;;;;;4.27;3.17;;;4.30;1.00;;;;;;5072078;28;21033;-60
2021/03/20 08:52:28;;;;;;;2.90;2.70;;;5.10;1.00;;;;;;5071005;28;20445;-59
2021/03/20 08:55:02;;;;;;;3.30;2.50;;;5.70;1.00;;;;;;5066227;28;20468;-59
2021/03/20 08:58:19;;;;;;;3.00;2.63;;;5.60;1.00;;;;;;5068662;28;20562;-58
2021/03/20 09:00:56;;;;;;;5.43;3.07;;;5.40;1.00;;;;;;5010833;28;20436;-59
2021/03/20 09:03:36;;;;;;;3.20;2.23;;;5.10;1.00;;;;;;5060695;28;20460;-60
2021/03/20 09:06:19;;;;;;;2.70;2.00;;;4.90;1.00;;;;;;5071396;28;20937;-58
2021/03/20 09:08:46;;;;;;;5.50;2.50;;;4.20;1.00;;;;;;5071809;28;20444;-59
2021/03/20 09:11:22;;;;;;;4.00;2.40;;;4.50;1.00;;;;;;5077167;28;20802;-60
2021/03/20 09:14:20;;;;;;;4.57;2.83;;;4.10;1.00;;;;;;5073894;28;20487;-58
2021/03/20 09:16:54;;;;;;;3.00;1.80;;;3.70;1.00;;;;;;5068933;28;20497;-60
2021/03/20 09:19:22;;;;;;;2.80;2.60;;;3.70;1.00;;;;;;5070843;28;20877;-60
2021/03/20 09:21:49;;;;;;;3.00;2.70;;;3.50;1.00;;;;;;5071145;28;20487;-60
2021/03/20 09:24:22;;;;;;;5.20;2.80;;;3.60;1.00;;;;;;5071379;28;20469;-58
2021/03/20 09:26:51;;;;;;;3.63;2.13;;;3.80;1.00;;;;;;5067508;28;20432;-58
2021/03/20 09:29:18;;;;;;;4.10;2.00;;;3.90;1.00;;;;;;5070552;28;20491;-59
2021/03/20 09:31:53;;;;;;;3.80;2.10;;;3.90;1.00;;;;;;5082820;28;20441;-58
2021/03/20 09:34:28;;;;;;;2.90;2.10;;;3.70;1.00;;;;;;5069415;28;21081;-58
2021/03/20 09:36:53;;;;;;;3.07;2.20;;;3.80;1.00;;;;;;5071120;28;20509;-58
2021/03/20 09:39:38;;;;;;;2.67;2.03;;;3.30;1.00;;;;;;5071242;28;21076;-59
2021/03/20 09:42:05;;;;;;;2.50;1.80;;;3.20;1.00;;;;;;5070922;28;20280;-59
2021/03/20 09:44:43;;;;;;;3.40;2.00;;;3.20;1.00;;;;;;5070686;28;20953;-57
2021/03/20 09:47:31;;;;;;;1.97;1.70;;;3.40;1.00;;;;;;5070631;28;20546;-59
2021/03/20 09:50:00;;;;;;;5.50;1.87;;;3.70;1.00;;;;;;5070404;28;20447;-58
2021/03/20 09:52:40;;;;;;;2.97;1.60;;;4.50;1.00;;;;;;5070678;28;20439;-60
2021/03/20 09:55:31;;;;;;;6.90;1.70;;;4.50;1.00;;;;;;5070836;28;20469;-58
2021/03/20 09:58:02;;;;;;;2.40;1.70;;;4.10;1.00;;;;;;5070365;28;20429;-57
2021/03/20 10:00:57;;;;;;;4.03;1.83;;;3.90;1.00;;;;;;5070556;28;20440;-59
2021/03/20 10:03:44;;;;;;;2.83;2.27;;;4.00;1.00;;;;;;5070753;28;20455;-59
2021/03/20 10:06:22;;;;;;;5.33;1.60;;;4.00;1.00;;;;;;5071564;28;20436;-60
2021/03/20 10:09:01;;;;;;;1.60;1.40;;;4.10;1.00;;;;;;5080481;28;20942;-59
2021/03/20 10:11:35;;;;;;;2.37;1.43;;;4.70;1.00;;;;;;5070214;28;20437;-59
2021/03/20 10:14:21;;;;;;;2.70;1.70;;;5.20;1.00;;;;;;5070426;28;20478;-60
2021/03/20 10:17:02;;;;;;;2.37;1.87;;;5.60;1.00;;;;;;5070412;28;20422;-60
2021/03/20 10:19:35;;;;;;;3.43;2.00;;;5.00;1.00;;;;;;5070265;28;20456;-59
2021/03/20 10:22:06;;;;;;;1.93;1.67;;;5.20;1.00;;;;;;5070408;28;20438;-60
2021/03/20 10:24:33;;;;;;;3.07;2.00;;;4.80;1.00;;;;;;5069088;28;20465;-59
2021/03/20 10:27:03;;;;;;;4.43;2.07;;;5.20;1.00;;;;;;5074143;28;20449;-60
2021/03/20 10:29:33;;;;;;;2.40;1.97;;;5.10;1.00;;;;;;5069200;28;20890;-59
2021/03/20 10:32:24;;;;;;;7.40;2.70;;;4.80;1.00;;;;;;5068073;28;20444;-59
2021/03/20 10:34:53;;;;;;;3.43;2.40;;;4.90;1.00;;;;;;5067995;28;20466;-60
2021/03/20 10:37:20;;;;;;;3.07;1.90;;;4.80;1.00;;;;;;5070197;28;20438;-59
2021/03/20 10:40:01;;;;;;;2.80;2.00;;;4.70;1.00;;;;;;5070612;28;20513;-58
2021/03/20 10:42:32;;;;;;;2.27;1.67;;;4.70;1.00;;;;;;5070616;28;20524;-60
2021/03/20 10:45:01;;;;;;;2.23;2.03;;;4.90;1.00;;;;;;5074963;28;20445;-58
2021/03/20 10:47:33;;;;;;;3.27;2.30;;;5.70;1.00;;;;;;5069511;28;20445;-59
2021/03/20 10:50:19;;;;;;;4.43;2.40;;;6.40;1.00;;;;;;5069080;28;20464;-59
2021/03/20 10:52:45;;;;;;;3.63;1.83;;;6.60;1.00;;;;;;5070075;28;20543;-59
2021/03/20 10:55:22;;;;;;;2.23;2.00;;;6.30;1.00;;;;;;5069689;28;20877;-59
2021/03/20 10:57:49;;;;;;;3.97;2.10;;;5.90;1.00;;;;;;5069774;28;20791;-59
2021/03/20 11:00:29;;;;;;;2.70;2.17;;;5.60;1.00;;;;;;5069357;28;20483;-59
2021/03/20 11:03:27;;;;;;;5.00;2.17;;;6.30;1.00;;;;;;5070358;28;20433;-58
2021/03/20 11:05:53;;;;;;;3.90;2.40;;;6.30;1.00;;;;;;5025152;28;20449;-59
2021/03/20 11:08:19;;;;;;;3.97;2.27;;;6.80;1.00;;;;;;5069940;28;20441;-59
2021/03/20 11:11:09;;;;;;;2.73;2.53;;;7.50;1.00;;;;;;5067801;28;20533;-59
2021/03/20 11:13:49;;;;;;;4.10;2.17;;;7.40;1.00;;;;;;5059857;28;20241;-59
2021/03/20 11:16:18;;;;;;;3.03;1.73;;;10.50;1.00;;;;;;5069939;28;20467;-60
2021/03/20 11:19:10;;;;;;;3.13;2.07;;;6.10;1.00;;;;;;5070434;28;20450;-58
2021/03/20 11:21:41;;;;;;;2.50;1.87;;;5.80;1.00;;;;;;5076836;28;20489;-59
2021/03/20 11:24:32;;;;;;;3.27;2.80;;;5.70;1.00;;;;;;5077915;28;20464;-59
2021/03/20 11:27:10;;;;;;;5.43;2.90;;;5.90;1.00;;;;;;5070047;28;20975;-59
2021/03/20 11:29:36;;;;;;;3.37;2.20;;;6.20;1.00;;;;;;5069768;28;20445;-59
2021/03/20 11:32:04;;;;;;;3.20;2.57;;;5.90;1.00;;;;;;5068391;28;20943;-59
2021/03/20 11:34:41;;;;;;;4.07;2.93;;;5.90;1.00;;;;;;5064263;28;20476;-59
2021/03/20 11:37:11;;;;;;;2.57;2.37;;;5.70;1.00;;;;;;5068514;28;20441;-59
2021/03/20 11:39:37;;;;;;;2.63;2.30;;;5.50;1.00;;;;;;5063835;28;20518;-59
2021/03/20 11:42:10;;;;;;;2.53;2.33;;;5.50;1.00;;;;;;5068073;28;20947;-58
2021/03/20 11:44:48;;;;;;;4.17;2.73;;;5.40;1.00;;;;;;5069351;28;20465;-59
2021/03/20 11:47:22;;;;;;;4.03;2.53;;;5.50;1.00;;;;;;5071421;28;20520;-59
2021/03/20 11:49:54;;;;;;;3.60;1.90;;;6.10;1.00;;;;;;5071296;28;20499;-59
2021/03/20 11:52:29;;;;;;;2.47;2.27;;;6.30;1.00;;;;;;5072888;28;20444;-59
2021/03/20 11:55:05;;;;;;;2.97;1.97;;;6.60;1.00;;;;;;5070384;28;20468;-60
2021/03/20 11:57:37;;;;;;;3.20;2.43;;;6.90;1.00;;;;;;5068410;28;20989;-59
2021/03/20 12:00:28;;;;;;;4.50;2.07;;;7.30;1.00;;;;;;5070129;28;20453;-59
2021/03/20 12:02:53;;;;;;;2.63;2.27;;;7.50;1.00;;;;;;5066599;28;20525;-60
2021/03/20 12:05:24;;;;;;;2.13;1.93;;;7.20;1.00;;;;;;5057183;28;20538;-59
2021/03/20 12:07:50;;;;;;;3.77;2.23;;;6.40;1.00;;;;;;5062817;28;20194;-59
2021/03/20 12:10:25;;;;;;;3.63;2.50;;;6.30;1.00;;;;;;5068671;28;20446;-60
2021/03/20 12:12:53;;;;;;;2.30;2.10;;;5.70;1.00;;;;;;5069434;28;20594;-59
2021/03/20 12:15:30;;;;;;;3.17;2.40;;;5.40;1.00;;;;;;5073508;28;20484;-59
2021/03/20 12:17:59;;;;;;;4.43;2.43;;;5.70;1.00;;;;;;5065808;28;20535;-59
2021/03/20 12:20:30;;;;;;;2.87;2.30;;;5.80;1.00;;;;;;5071985;28;20962;-59
2021/03/20 12:22:56;;;;;;;5.63;2.40;;;5.50;1.00;;;;;;5072145;28;20856;-59
2021/03/20 12:25:35;;;;;;;4.93;2.77;;;5.60;1.00;;;;;;5071844;28;20514;-59
2021/03/20 12:28:37;;;;;;;3.27;2.33;;;6.20;1.00;;;;;;5073469;28;20285;-59
2021/03/20 12:31:03;;;;;;;2.37;2.13;;;6.30;1.00;;;;;;5071104;28;20472;-59
2021/03/20 12:33:29;;;;;;;2.90;2.60;;;6.50;1.00;;;;;;5070582;28;20978;-60
2021/03/20 12:35:55;;;;;;;2.20;1.93;;;7.00;1.00;;;;;;5053463;28;20475;-59
2021/03/20 12:38:26;;;;;;;3.63;2.57;;;6.90;1.00;;;;;;5071363;28;20594;-59
2021/03/20 12:41:03;;;;;;;4.60;2.43;;;6.40;1.00;;;;;;5071887;28;20457;-60
2021/03/20 12:43:32;;;;;;;3.30;2.83;;;5.90;1.00;;;;;;5083072;28;20539;-59
2021/03/20 12:46:02;;;;;;;3.17;2.37;;;5.20;1.00;;;;;;5092466;28;20518;-59
2021/03/20 12:48:34;;;;;;;3.80;2.50;;;4.50;1.00;;;;;;5072056;28;20965;-58
2021/03/20 12:51:20;;;;;;;2.40;2.10;;;4.50;1.00;;;;;;5072064;28;20442;-59
2021/03/20 12:53:46;;;;;;;4.63;2.70;;;4.30;1.00;;;;;;5071452;28;20446;-59
2021/03/20 12:56:11;;;;;;;2.50;2.10;;;;;;;;;;5071083;28;20469;-57
2021/03/20 12:58:37;;;;;;;3.63;2.30;;;4.50;1.00;;;;;;5071050;28;20426;-58
2021/03/20 13:01:03;;;;;;;6.30;4.60;;;4.80;1.00;;;;;;5071331;28;20849;-58
2021/03/20 13:03:33;;;;;;;3.17;2.80;;;5.30;1.00;;;;;;5070339;28;20296;-58
2021/03/20 13:05:59;;;;;;;4.80;3.37;;;5.50;1.00;;;;;;5071924;28;20976;-58
2021/03/20 13:08:25;;;;;;;2.90;2.70;;;5.70;1.00;;;;;;5071045;28;20445;-58
2021/03/20 13:10:51;;;;;;;4.83;3.20;;;5.90;1.00;;;;;;5070925;28;20182;-58
2021/03/20 13:13:16;;;;;;;4.60;2.77;;;6.20;1.00;;;;;;5070852;28;20536;-58
2021/03/20 13:15:42;;;;;;;2.60;2.37;;;6.60;1.00;;;;;;5071272;28;20207;-59
2021/03/20 13:18:08;;;;;;;6.07;3.23;;;6.60;1.00;;;;;;5071340;28;20191;-59
2021/03/20 13:20:34;;;;;;;2.67;1.87;;;6.60;1.00;;;;;;5074442;28;20184;-59
2021/03/20 13:22:59;;;;;;;2.60;2.07;;;6.50;1.00;;;;;;5069746;28;20495;-58
2021/03/20 13:25:31;;;;;;;3.23;2.20;;;6.10;1.00;;;;;;5070500;28;20246;-59
2021/03/20 13:27:57;;;;;;;2.03;1.90;;;6.20;1.00;;;;;;5069692;28;20649;-60
2021/03/20 13:30:26;;;;;;;3.43;3.03;;;6.10;1.00;;;;;;5069768;28;20438;-60
2021/03/20 13:32:54;;;;;;;3.00;2.50;;;6.10;1.00;;;;;;5071093;28;20183;-58
2021/03/20 13:35:22;;;;;;;3.50;2.13;;;6.00;1.00;;;;;;5071192;28;20981;-59
2021/03/20 13:37:48;;;;;;;2.97;2.23;;;5.40;1.00;;;;;;5071655;28;20938;-59
2021/03/20 13:40:14;;;;;;;2.97;2.03;;;5.10;1.00;;;;;;5071389;28;20496;-59
2021/03/20 13:42:40;;;;;;;4.20;2.60;;;5.20;1.00;;;;;;5071230;28;20186;-59
2021/03/20 13:45:12;;;;;;;2.27;2.17;;;5.60;1.00;;;;;;5071008;28;20445;-59